CheckWX is a tool to help pilots better visualize weather data.  It is not intended as a substitute for an official pre-flight weather briefing.

20:51:58 UTC

KCMA TAF
Camarillo Airport
Camarillo, California, USA
KCMA 162012Z 1620/1718 24007KT P6SM OVC020 FM162200 26010KT P6SM SCT025 FM170430 VRB03KT P6SM BKN010 FM170900 VRB03KT P6SM OVC008 FM171700 24005KT P6SM OVC018

Jun-16@
20:00 UTC

Jun-16 @ 20:00 UTC

Jun-16@
22:00 UTC

Jun-16 @ 22:00 UTC

KCMA 162012Z 1620/1718 24007KT P6SM OVC020
Wind
  • 240° at 7 KTS
Cloud Levels
  • Overcast at 2,000' AGL

Jun-16@
22:00 UTC

Jun-16 @ 22:00 UTC

Jun-17@
04:30 UTC

Jun-17 @ 04:30 UTC

FM162200 26010KT P6SM SCT025

From

From Standard forecast or significant change

Wind
  • 260° at 10 KTS
Cloud Levels
  • Scattered at 2,500' AGL

Jun-17@
04:30 UTC

Jun-17 @ 04:30 UTC

Jun-17@
09:00 UTC

Jun-17 @ 09:00 UTC

FM170430 VRB03KT P6SM BKN010

From

From Standard forecast or significant change

Wind
  • Variable at 3 KTS
Cloud Levels
  • Broken at 1,000' AGL

Jun-17@
09:00 UTC

Jun-17 @ 09:00 UTC

Jun-17@
17:00 UTC

Jun-17 @ 17:00 UTC

FM170900 VRB03KT P6SM OVC008

From

From Standard forecast or significant change

Wind
  • Variable at 3 KTS
Cloud Levels
  • Overcast at 800' AGL

Jun-17@
17:00 UTC

Jun-17 @ 17:00 UTC

Jun-17@
18:00 UTC

Jun-17 @ 18:00 UTC

FM171700 24005KT P6SM OVC018

From

From Standard forecast or significant change

Wind
  • 240° at 5 KTS
Cloud Levels
  • Overcast at 1,800' AGL